Seybold, Florida
Current Conditions -  °F | °C
As of 3:53 AM on Saturday 22 Nov 2014 (Local Time) from KMIA Reporting Station
Broken Clouds Broken Clouds  
Wind Chill: 76°   Ceiling: 4800
Heat Index: 76°   Visibility: 10mi
Dew Point: 68°   Wind: 15mph
Humidity: 76%   Direction: 70°ENE
Pressure: 30.14"   Gusts: NA
Location:  25.7849°N, 80.1896°W
Report Text: KMIA 220853Z 07013KT 10SM SCT027 BKN048 24/20 A3014 RMK AO2 SLP205 T02440200 55001
Loading
Personal Weather Stations






























Interactive Weather Map New forecast layout! Learn more

10-Day Weather Forecast

Advertisements
Track Severe Weather on mobile